Time;durP1;ratioP1;P1;durP2;ratioP2;P2;SDS_P1;SDS_P2;PMS_P1;PMS_P2;Temp;Humidity;BMP_temperature;BMP_pressure;BME280_temperature;BME280_humidity;BME280_pressure;Samples;Min_cycle;Max_cycle;Signal;HPM_P1;HPM_P2
2023/06/15 00:01:55;;;;;;;;;;;15.30;99.90;;;;;;5072416;28;20070;-74
2023/06/15 00:04:20;;;;;;;0.40;0.40;;;15.40;99.90;;;;;;5088210;28;19978;-74
2023/06/15 00:06:46;;;;;;;;;;;15.30;99.90;;;;;;5088886;28;20466;-74
2023/06/15 00:09:12;;;;;;;0.20;0.20;;;15.30;99.90;;;;;;5122997;27;19927;-74
2023/06/15 00:11:38;;;;;;;;;;;15.30;99.90;;;;;;5072088;28;20071;-74
2023/06/15 00:14:03;;;;;;;0.30;0.30;;;15.30;99.90;;;;;;5071705;28;19947;-75
2023/06/15 00:16:31;;;;;;;0.38;0.38;;;15.30;99.90;;;;;;5088034;28;20058;-73
2023/06/15 00:19:02;;;;;;;0.68;0.65;;;15.30;99.90;;;;;;5071615;28;20509;-74
2023/06/15 00:21:30;;;;;;;0.30;0.30;;;15.30;99.90;;;;;;5071255;28;20040;-73
2023/06/15 00:23:56;;;;;;;0.20;0.20;;;15.20;99.90;;;;;;5088015;28;20576;-74
2023/06/15 00:26:22;;;;;;;;;;;15.20;99.90;;;;;;5071320;28;20046;-74
2023/06/15 00:28:47;;;;;;;0.30;0.30;;;15.10;99.90;;;;;;5088066;28;19923;-74
2023/06/15 00:31:13;;;;;;;0.28;0.28;;;15.10;99.90;;;;;;5122533;27;20040;-73
2023/06/15 00:33:39;;;;;;;;;;;15.10;99.90;;;;;;5088195;28;20067;-74
2023/06/15 00:36:07;;;;;;;0.30;0.30;;;15.00;99.90;;;;;;5088330;28;19920;-74
2023/06/15 00:38:33;;;;;;;0.20;0.20;;;15.00;99.90;;;;;;5071678;28;20051;-74
2023/06/15 00:40:58;;;;;;;;;;;14.90;99.90;;;;;;5088482;28;20130;-74
2023/06/15 00:43:25;;;;;;;0.30;0.30;;;14.90;99.90;;;;;;5087554;28;19919;-74
2023/06/15 00:45:50;;;;;;;0.50;0.50;;;14.80;99.90;;;;;;5088486;28;20063;-74
2023/06/15 00:48:16;;;;;;;;;;;14.80;99.90;;;;;;5088274;28;20036;-75
2023/06/15 00:50:42;;;;;;;0.28;0.28;;;14.80;99.90;;;;;;5087782;28;19920;-74
2023/06/15 00:53:09;;;;;;;0.40;0.40;;;14.70;99.90;;;;;;5071461;28;20156;-74
2023/06/15 00:55:37;;;;;;;0.20;0.20;;;14.70;99.90;;;;;;5088477;28;20047;-74
2023/06/15 00:58:04;;;;;;;0.20;0.20;;;14.60;99.90;;;;;;5089551;28;20484;-74
2023/06/15 01:00:37;;;;;;;0.30;0.30;;;14.60;99.90;;;;;;5088131;28;20120;-74
2023/06/15 01:03:04;;;;;;;0.40;0.40;;;14.50;99.90;;;;;;5071256;28;20078;-75
2023/06/15 01:05:34;;;;;;;0.30;0.30;;;14.50;99.90;;;;;;5071083;28;20051;-74
2023/06/15 01:08:04;;;;;;;0.25;0.25;;;14.40;99.90;;;;;;5072305;28;20397;-74
2023/06/15 01:10:31;;;;;;;0.20;0.20;;;14.30;99.90;;;;;;5087508;28;20044;-74
2023/06/15 01:13:02;;;;;;;0.90;0.52;;;14.30;99.90;;;;;;5071822;28;20084;-74
2023/06/15 01:15:28;;;;;;;0.20;0.20;;;14.20;99.90;;;;;;5071416;28;20382;-74
2023/06/15 01:17:56;;;;;;;;;;;14.20;99.90;;;;;;5088374;28;20040;-75
2023/06/15 01:20:29;;;;;;;0.47;0.47;;;14.10;99.90;;;;;;5108850;28;20280;-74
2023/06/15 01:23:43;;;;;;;0.20;0.20;;;14.10;99.90;;;;;;5092062;28;20406;-74
2023/06/15 01:26:11;;;;;;;0.32;0.32;;;14.00;99.90;;;;;;5091676;28;20075;-75
2023/06/15 01:28:49;;;;;;;0.20;0.20;;;13.90;99.90;;;;;;5108469;28;20084;-75
2023/06/15 01:31:15;;;;;;;0.15;0.15;;;13.90;99.90;;;;;;5126223;27;20063;-75
2023/06/15 01:33:49;;;;;;;0.30;0.30;;;13.90;99.90;;;;;;5074714;28;20397;-74
2023/06/15 01:36:16;;;;;;;0.20;0.20;;;13.90;99.90;;;;;;5057985;28;20048;-74
2023/06/15 01:38:43;;;;;;;0.20;0.20;;;13.90;99.90;;;;;;5090907;28;20048;-74
2023/06/15 01:41:10;;;;;;;0.30;0.30;;;13.80;99.90;;;;;;5074682;28;20036;-74
2023/06/15 01:43:37;;;;;;;0.38;0.38;;;13.80;99.90;;;;;;5074462;28;20488;-74
2023/06/15 01:46:05;;;;;;;0.20;0.20;;;13.70;99.90;;;;;;5074200;28;20505;-74
2023/06/15 01:48:31;;;;;;;0.38;0.30;;;13.70;99.90;;;;;;5090730;28;20072;-74
2023/06/15 01:50:58;;;;;;;0.30;0.30;;;13.70;99.90;;;;;;5091100;28;20082;-74
2023/06/15 01:53:24;;;;;;;0.20;0.20;;;13.60;99.90;;;;;;5075060;28;20511;-74
2023/06/15 01:55:50;;;;;;;;;;;13.60;99.90;;;;;;5091215;28;20056;-74
2023/06/15 01:58:16;;;;;;;0.20;0.20;;;13.60;99.90;;;;;;5090925;28;19916;-74
2023/06/15 02:00:46;;;;;;;;;;;13.60;99.90;;;;;;5074393;28;20413;-75
2023/06/15 02:03:12;;;;;;;0.40;0.40;;;13.50;99.90;;;;;;5091089;28;20007;-74
2023/06/15 02:05:41;;;;;;;0.30;0.30;;;13.50;99.90;;;;;;5090828;28;20546;-74
2023/06/15 02:08:11;;;;;;;0.20;0.20;;;13.50;99.90;;;;;;5090787;28;20036;-74
2023/06/15 02:10:38;;;;;;;0.20;0.20;;;13.50;99.90;;;;;;5090703;28;20150;-74
2023/06/15 02:13:06;;;;;;;0.25;0.25;;;13.50;99.90;;;;;;5090770;28;20085;-74
2023/06/15 02:15:32;;;;;;;0.30;0.30;;;13.50;99.90;;;;;;5090396;28;20119;-75
2023/06/15 02:18:02;;;;;;;;;;;13.50;99.90;;;;;;5091290;28;20119;-74
2023/06/15 02:20:29;;;;;;;3.40;0.80;;;13.40;99.90;;;;;;5090515;28;19965;-74
2023/06/15 02:22:57;;;;;;;0.20;0.20;;;13.40;99.90;;;;;;5057100;28;20052;-74
2023/06/15 02:25:29;;;;;;;0.13;0.13;;;13.30;99.90;;;;;;5073461;28;20071;-74
2023/06/15 02:27:56;;;;;;;0.32;0.32;;;13.30;99.90;;;;;;5124574;27;20064;-74
2023/06/15 02:30:24;;;;;;;0.20;0.20;;;13.20;99.90;;;;;;5106456;28;20040;-74
2023/06/15 02:32:52;;;;;;;0.20;0.20;;;13.20;99.90;;;;;;5107129;28;20054;-74
2023/06/15 02:35:19;;;;;;;0.30;0.30;;;13.10;99.90;;;;;;5090555;28;20046;-74
2023/06/15 02:37:45;;;;;;;0.30;0.30;;;13.00;99.90;;;;;;5089859;28;20055;-74
2023/06/15 02:40:10;;;;;;;;;;;13.00;99.90;;;;;;5057383;28;20522;-75
2023/06/15 02:42:37;;;;;;;0.25;0.25;;;13.00;99.90;;;;;;5089884;28;20308;-74
2023/06/15 02:45:06;;;;;;;0.30;0.30;;;13.00;99.90;;;;;;5090025;28;20036;-75
2023/06/15 02:47:35;;;;;;;0.30;0.30;;;13.00;99.90;;;;;;5089687;28;20054;-74
2023/06/15 02:50:01;;;;;;;0.30;0.30;;;13.00;99.90;;;;;;5089962;28;20075;-74
2023/06/15 02:52:27;;;;;;;0.30;0.30;;;12.90;99.90;;;;;;5086161;28;20040;-74
2023/06/15 02:54:53;;;;;;;;;;;12.90;99.90;;;;;;5075562;28;20425;-74
2023/06/15 02:57:18;;;;;;;0.35;0.35;;;12.80;99.90;;;;;;5089337;28;19920;-74
2023/06/15 02:59:44;;;;;;;0.25;0.25;;;12.80;99.90;;;;;;5072137;28;20499;-74
2023/06/15 03:02:10;;;;;;;0.30;0.30;;;12.80;99.90;;;;;;5072152;28;20443;-74
2023/06/15 03:04:44;;;;;;;;;;;12.80;99.90;;;;;;5071695;28;20040;-74
2023/06/15 03:07:16;;;;;;;0.20;0.20;;;12.80;99.90;;;;;;5089122;28;19916;-74
2023/06/15 03:09:50;;;;;;;0.30;0.30;;;12.70;99.90;;;;;;5088952;28;20036;-74
2023/06/15 03:12:16;;;;;;;0.30;0.30;;;12.70;99.90;;;;;;5069113;28;20033;-74
2023/06/15 03:14:44;;;;;;;0.30;0.30;;;12.70;99.90;;;;;;5063654;28;20134;-74
2023/06/15 03:17:12;;;;;;;0.40;0.40;;;12.60;99.90;;;;;;5072398;28;20043;-74
2023/06/15 03:19:39;;;;;;;0.30;0.30;;;12.60;99.90;;;;;;5089514;28;20135;-74
2023/06/15 03:22:07;;;;;;;0.30;0.30;;;12.60;99.90;;;;;;5089495;28;20040;-74
2023/06/15 03:24:33;;;;;;;0.28;0.28;;;12.60;99.90;;;;;;5072298;28;20044;-73
2023/06/15 03:27:01;;;;;;;0.28;0.28;;;12.60;99.90;;;;;;5072242;28;20039;-74
2023/06/15 03:29:31;;;;;;;0.25;0.25;;;12.60;99.90;;;;;;5089795;28;20047;-74
2023/06/15 03:31:58;;;;;;;0.40;0.40;;;12.50;99.90;;;;;;5088746;28;20051;-74
2023/06/15 03:34:25;;;;;;;0.35;0.35;;;12.50;99.90;;;;;;5073569;28;20036;-74
2023/06/15 03:36:52;;;;;;;0.30;0.30;;;12.50;99.90;;;;;;5073035;28;20059;-74
2023/06/15 03:39:22;;;;;;;0.30;0.30;;;12.50;99.90;;;;;;5089456;28;20051;-74
2023/06/15 03:41:48;;;;;;;0.30;0.30;;;12.50;99.90;;;;;;5072425;28;20044;-74
2023/06/15 03:44:14;;;;;;;0.20;0.20;;;12.50;99.90;;;;;;5089001;28;20063;-74
2023/06/15 03:46:41;;;;;;;;;;;12.50;99.90;;;;;;5072212;28;20481;-74
2023/06/15 03:49:07;;;;;;;0.30;0.30;;;12.60;99.90;;;;;;5089309;28;19920;-74
2023/06/15 03:51:33;;;;;;;0.40;0.40;;;12.60;99.90;;;;;;5078878;28;20046;-74
2023/06/15 03:54:00;;;;;;;0.40;0.40;;;12.60;99.90;;;;;;5099144;28;20401;-74
2023/06/15 03:56:25;;;;;;;0.43;0.43;;;12.60;99.90;;;;;;5089584;28;20331;-74
2023/06/15 03:58:51;;;;;;;0.30;0.30;;;12.60;99.90;;;;;;5071886;28;20089;-74
2023/06/15 04:01:19;;;;;;;0.30;0.30;;;12.60;99.90;;;;;;5055305;28;20130;-74
2023/06/15 04:03:45;;;;;;;0.30;0.30;;;12.70;99.90;;;;;;5088219;28;20048;-74
2023/06/15 04:06:11;;;;;;;;;;;12.70;99.90;;;;;;5055934;28;20504;-74
2023/06/15 04:08:37;;;;;;;0.63;0.63;;;12.70;99.90;;;;;;5088801;28;19935;-74
2023/06/15 04:11:03;;;;;;;0.40;0.40;;;12.80;99.90;;;;;;5088773;28;20504;-74
2023/06/15 04:13:29;;;;;;;0.30;0.30;;;12.80;99.90;;;;;;5071644;28;20050;-74
2023/06/15 04:15:54;;;;;;;;;;;12.90;99.90;;;;;;5071947;28;20040;-74
2023/06/15 04:18:21;;;;;;;0.30;0.30;;;12.90;99.90;;;;;;5088673;28;19920;-75
2023/06/15 04:20:47;;;;;;;0.32;0.32;;;13.00;99.90;;;;;;5071731;28;20367;-74
2023/06/15 04:23:12;;;;;;;0.20;0.20;;;13.00;99.90;;;;;;5088392;28;20032;-74
2023/06/15 04:25:40;;;;;;;0.30;0.30;;;13.20;99.90;;;;;;5067710;28;20135;-74
2023/06/15 04:28:12;;;;;;;0.30;0.30;;;13.20;99.90;;;;;;5051235;28;20049;-74
2023/06/15 04:30:44;;;;;;;0.30;0.30;;;13.30;99.90;;;;;;5068516;28;20037;-74
2023/06/15 04:33:13;;;;;;;0.47;0.47;;;13.40;99.90;;;;;;5068916;28;20079;-74
2023/06/15 04:35:40;;;;;;;0.28;0.28;;;13.50;99.90;;;;;;5087376;28;20040;-75
2023/06/15 04:38:06;;;;;;;0.30;0.30;;;13.70;99.90;;;;;;5088025;28;20039;-75
2023/06/15 04:40:32;;;;;;;0.20;0.20;;;13.80;99.90;;;;;;5088030;28;20050;-74
2023/06/15 04:42:58;;;;;;;0.20;0.20;;;14.00;99.90;;;;;;5071095;28;20079;-74
2023/06/15 04:45:24;;;;;;;0.25;0.25;;;14.10;99.90;;;;;;5071396;28;20075;-74
2023/06/15 04:47:50;;;;;;;0.20;0.20;;;14.30;99.90;;;;;;5071185;28;20542;-74
2023/06/15 04:50:16;;;;;;;;;;;14.30;99.90;;;;;;5088478;28;20047;-74
2023/06/15 04:52:41;;;;;;;0.22;0.22;;;14.40;99.90;;;;;;5102900;28;20010;-74
2023/06/15 04:55:08;;;;;;;0.38;0.38;;;14.50;99.90;;;;;;5075442;28;20047;-75
2023/06/15 04:57:33;;;;;;;0.28;0.28;;;14.60;99.90;;;;;;5092626;28;20649;-75
2023/06/15 05:00:00;;;;;;;;;;;14.70;99.90;;;;;;5092287;28;20130;-74
2023/06/15 05:02:25;;;;;;;0.60;0.60;;;14.80;99.90;;;;;;5092485;28;19916;-74
2023/06/15 05:04:51;;;;;;;;;;;14.90;99.90;;;;;;5092043;28;20409;-75
2023/06/15 05:07:17;;;;;;;0.40;0.40;;;15.00;99.90;;;;;;5075279;28;19985;-74
2023/06/15 05:09:42;;;;;;;0.22;0.22;;;15.10;99.90;;;;;;5058802;28;20040;-74
2023/06/15 05:12:08;;;;;;;;;;;15.20;99.90;;;;;;5092757;28;20071;-74
2023/06/15 05:14:34;;;;;;;0.30;0.30;;;15.20;99.90;;;;;;5092106;28;20326;-74
2023/06/15 05:17:03;;;;;;;0.20;0.20;;;15.30;99.90;;;;;;5074613;28;20524;-74
2023/06/15 05:19:32;;;;;;;0.30;0.30;;;15.30;99.90;;;;;;5091863;28;20183;-75
2023/06/15 05:22:00;;;;;;;0.20;0.20;;;15.40;99.90;;;;;;5074726;28;20047;-75
2023/06/15 05:24:26;;;;;;;0.20;0.20;;;15.50;99.90;;;;;;5091606;28;20086;-76
2023/06/15 05:26:52;;;;;;;0.57;0.57;;;15.50;99.90;;;;;;5091236;28;20393;-75
2023/06/15 05:29:18;;;;;;;;;;;15.60;99.90;;;;;;5126099;27;20051;-74
2023/06/15 05:31:43;;;;;;;0.20;0.20;;;15.70;99.90;;;;;;5091486;28;19919;-74
2023/06/15 05:34:09;;;;;;;;;;;15.70;99.90;;;;;;5075125;28;20390;-75
2023/06/15 05:36:35;;;;;;;0.20;0.20;;;15.80;99.90;;;;;;5091994;28;19924;-74
2023/06/15 05:39:01;;;;;;;;;;;15.90;99.90;;;;;;5058314;28;20047;-75
2023/06/15 05:41:26;;;;;;;0.32;0.32;;;16.00;99.90;;;;;;5074648;28;19974;-74
2023/06/15 05:43:52;;;;;;;;;;;16.00;99.90;;;;;;5074491;28;20124;-75
2023/06/15 05:46:18;;;;;;;0.22;0.22;;;16.10;99.90;;;;;;5091879;28;19923;-74
2023/06/15 05:48:43;;;;;;;0.22;0.22;;;16.30;99.90;;;;;;5057822;28;20085;-75
2023/06/15 05:51:09;;;;;;;;;;;16.20;99.90;;;;;;5091175;28;20032;-75
2023/06/15 05:53:35;;;;;;;0.20;0.20;;;16.50;99.90;;;;;;5091038;28;19928;-75
2023/06/15 05:56:00;;;;;;;;;;;16.60;99.90;;;;;;5074585;28;20176;-75
2023/06/15 05:58:26;;;;;;;0.10;0.10;;;16.70;99.90;;;;;;5074869;28;19927;-75
2023/06/15 06:00:52;;;;;;;;;;;16.80;99.90;;;;;;5091449;28;20050;-75
2023/06/15 06:03:17;;;;;;;0.30;0.30;;;17.00;99.90;;;;;;5090943;28;19916;-75
2023/06/15 06:05:43;;;;;;;;;;;17.10;99.90;;;;;;5073286;28;20101;-75
2023/06/15 06:08:08;;;;;;;0.30;0.30;;;17.20;99.90;;;;;;5073890;28;20415;-75
2023/06/15 06:10:34;;;;;;;;;;;17.30;99.90;;;;;;5075487;28;20051;-76
2023/06/15 06:13:00;;;;;;;0.20;0.20;;;17.30;99.90;;;;;;5073980;28;19923;-75
2023/06/15 06:15:26;;;;;;;;;;;17.40;99.90;;;;;;5074890;28;20048;-75
2023/06/15 06:17:52;;;;;;;0.17;0.17;;;17.50;99.90;;;;;;5107719;28;19919;-75
2023/06/15 06:20:18;;;;;;;;;;;17.80;99.90;;;;;;5091367;28;20282;-75
2023/06/15 06:22:44;;;;;;;0.57;0.57;;;17.70;99.90;;;;;;5090697;28;19923;-75
2023/06/15 06:25:11;;;;;;;;;;;17.80;99.90;;;;;;5087249;28;20155;-75
2023/06/15 06:27:36;;;;;;;0.20;0.20;;;17.90;99.90;;;;;;5116365;27;19923;-75
2023/06/15 06:30:02;;;;;;;;;;;18.10;99.90;;;;;;5091155;28;20485;-75
2023/06/15 06:32:28;;;;;;;0.20;0.20;;;18.10;99.90;;;;;;5091035;28;19919;-75
2023/06/15 06:34:53;;;;;;;;;;;18.20;99.90;;;;;;5090510;28;20044;-75
2023/06/15 06:37:19;;;;;;;0.20;0.20;;;18.30;99.90;;;;;;5090419;28;19920;-74
2023/06/15 06:39:45;;;;;;;;;;;18.40;99.90;;;;;;5091208;28;20059;-75
2023/06/15 06:42:11;;;;;;;0.20;0.20;;;18.50;99.90;;;;;;5089882;28;20280;-74
2023/06/15 06:44:37;;;;;;;0.28;0.28;;;18.60;99.90;;;;;;5090129;28;20082;-74
2023/06/15 06:47:03;;;;;;;;;;;18.70;99.90;;;;;;5090092;28;20075;-74
2023/06/15 06:49:29;;;;;;;0.20;0.20;;;18.90;99.90;;;;;;5090008;28;20361;-75
2023/06/15 06:51:55;;;;;;;0.20;0.20;;;19.00;99.90;;;;;;5089362;28;20086;-75
2023/06/15 06:54:21;;;;;;;0.10;0.10;;;19.20;99.90;;;;;;5056270;28;20127;-74
2023/06/15 06:56:46;;;;;;;;;;;19.40;99.90;;;;;;5090304;28;20097;-74
2023/06/15 06:59:12;;;;;;;0.20;0.20;;;19.50;99.90;;;;;;5072892;28;19920;-74
2023/06/15 07:01:38;;;;;;;;;;;19.70;99.90;;;;;;5073151;28;20052;-74
2023/06/15 07:04:04;;;;;;;0.10;0.10;;;19.90;99.90;;;;;;5072596;28;19924;-75
2023/06/15 07:06:30;;;;;;;0.40;0.40;;;20.00;99.90;;;;;;5089597;28;20090;-74
2023/06/15 07:08:56;;;;;;;0.20;0.20;;;20.10;99.90;;;;;;5072401;28;20075;-75
2023/06/15 07:11:22;;;;;;;0.17;0.17;;;20.10;99.90;;;;;;5056003;28;20450;-75
2023/06/15 07:13:47;;;;;;;;;;;20.30;99.90;;;;;;5073227;28;20040;-75
2023/06/15 07:16:13;;;;;;;0.25;0.25;;;20.30;99.90;;;;;;5071918;28;19923;-75
2023/06/15 07:18:38;;;;;;;;;;;20.50;99.90;;;;;;5089847;28;20177;-75
2023/06/15 07:21:04;;;;;;;0.20;0.20;;;20.60;99.40;;;;;;5088963;28;19924;-75
2023/06/15 07:23:29;;;;;;;;;;;20.70;98.30;;;;;;5089774;28;20097;-75
2023/06/15 07:25:55;;;;;;;0.20;0.20;;;20.80;97.90;;;;;;5102526;28;19963;-76
2023/06/15 07:28:21;;;;;;;;;;;20.90;97.20;;;;;;5086397;28;20525;-76
2023/06/15 07:30:50;;;;;;;0.10;0.10;;;21.00;95.60;;;;;;5068656;28;20342;-75
2023/06/15 07:33:17;;;;;;;0.30;0.30;;;21.20;97.30;;;;;;5052037;28;20121;-76
2023/06/15 07:35:43;;;;;;;0.20;0.20;;;21.30;96.00;;;;;;5068755;28;20498;-75
2023/06/15 07:38:09;;;;;;;0.40;0.40;;;21.50;95.10;;;;;;5068454;28;20086;-75
2023/06/15 07:40:34;;;;;;;0.20;0.20;;;21.60;94.30;;;;;;5052164;28;20040;-76
2023/06/15 07:43:01;;;;;;;0.45;0.30;;;21.70;94.40;;;;;;5077389;28;20063;-75
2023/06/15 07:45:27;;;;;;;0.10;0.10;;;21.80;96.00;;;;;;5072340;28;20389;-76
2023/06/15 07:47:53;;;;;;;0.65;0.50;;;21.90;95.40;;;;;;5072018;28;20055;-76
2023/06/15 07:50:18;;;;;;;0.20;0.20;;;22.10;94.60;;;;;;5088743;28;20036;-75
2023/06/15 07:52:44;;;;;;;0.20;0.20;;;22.20;93.00;;;;;;5090733;28;20047;-76
2023/06/15 07:55:10;;;;;;;0.45;0.45;;;22.20;93.20;;;;;;5051370;28;20080;-76
2023/06/15 07:57:36;;;;;;;0.13;0.13;;;22.30;93.40;;;;;;5102573;28;20067;-76
2023/06/15 08:00:04;;;;;;;0.20;0.20;;;22.40;94.30;;;;;;5085250;28;20125;-76
2023/06/15 08:02:30;;;;;;;0.35;0.35;;;22.60;92.50;;;;;;5068675;28;20076;-76
2023/06/15 08:04:56;;;;;;;0.30;0.30;;;22.60;91.80;;;;;;5102333;28;20117;-76
2023/06/15 08:07:22;;;;;;;0.20;0.20;;;22.60;91.30;;;;;;5102457;28;20493;-76
2023/06/15 08:09:48;;;;;;;0.10;0.10;;;22.60;90.50;;;;;;5102159;28;20040;-76
2023/06/15 08:12:13;;;;;;;0.10;0.10;;;22.70;90.10;;;;;;5085071;28;20056;-76
2023/06/15 08:14:39;;;;;;;0.20;0.20;;;22.80;90.10;;;;;;5079232;28;20051;-75
2023/06/15 08:17:05;;;;;;;0.20;0.20;;;22.80;88.10;;;;;;5088527;28;20052;-76
2023/06/15 08:19:31;;;;;;;0.20;0.20;;;22.90;90.50;;;;;;5071564;28;20130;-76
2023/06/15 08:21:57;;;;;;;0.30;0.30;;;22.90;90.30;;;;;;5054811;28;20126;-77
2023/06/15 08:24:23;;;;;;;0.20;0.20;;;22.90;90.40;;;;;;5071418;28;20109;-76
2023/06/15 08:26:48;;;;;;;0.43;0.43;;;22.80;92.60;;;;;;5068047;28;20041;-76
2023/06/15 08:29:15;;;;;;;0.30;0.30;;;22.80;90.90;;;;;;5067327;28;20043;-76
2023/06/15 08:31:41;;;;;;;1.10;0.75;;;22.80;88.40;;;;;;5068197;28;20048;-76
2023/06/15 08:34:07;;;;;;;0.80;0.80;;;23.00;87.60;;;;;;5074433;28;20070;-76
2023/06/15 08:36:33;;;;;;;0.10;0.10;;;23.10;85.70;;;;;;5071571;28;20048;-76
2023/06/15 08:39:00;;;;;;;0.30;0.30;;;23.20;86.40;;;;;;5071240;28;20067;-76
2023/06/15 08:41:27;;;;;;;0.28;0.28;;;23.20;82.20;;;;;;5071582;28;20548;-76
2023/06/15 08:43:54;;;;;;;0.10;0.10;;;23.20;85.00;;;;;;5070608;28;20493;-76
2023/06/15 08:46:22;;;;;;;0.17;0.17;;;23.20;79.40;;;;;;5089198;28;20048;-77
2023/06/15 08:48:51;;;;;;;0.10;0.10;;;23.30;83.70;;;;;;5073619;28;20089;-76
2023/06/15 08:51:17;;;;;;;0.20;0.20;;;23.40;81.50;;;;;;5088261;28;20039;-76
2023/06/15 08:53:45;;;;;;;1.20;0.50;;;23.30;84.10;;;;;;5071299;28;20371;-76
2023/06/15 08:56:14;;;;;;;0.50;0.50;;;23.40;80.80;;;;;;5071537;28;20043;-75
2023/06/15 08:58:41;;;;;;;0.10;0.10;;;23.50;77.90;;;;;;5071923;28;20082;-76
2023/06/15 09:01:07;;;;;;;0.15;0.15;;;23.50;77.70;;;;;;5071307;28;20043;-76
2023/06/15 09:03:37;;;;;;;0.25;0.25;;;23.60;80.00;;;;;;5071745;28;20047;-76
2023/06/15 09:06:03;;;;;;;0.30;0.30;;;23.80;82.40;;;;;;5088339;28;20119;-77
2023/06/15 09:08:28;;;;;;;0.20;0.20;;;23.90;75.90;;;;;;5071535;28;20126;-76
2023/06/15 09:11:08;;;;;;;0.10;0.10;;;24.00;80.30;;;;;;5070871;28;20044;-77
2023/06/15 09:13:34;;;;;;;0.28;0.28;;;23.90;75.20;;;;;;5071556;28;20043;-76
2023/06/15 09:16:01;;;;;;;0.20;0.20;;;24.00;79.80;;;;;;5087915;28;20050;-76
2023/06/15 09:18:28;;;;;;;0.10;0.10;;;23.90;76.50;;;;;;5071051;28;20043;-77
2023/06/15 09:20:59;;;;;;;0.30;0.30;;;24.00;77.70;;;;;;5121905;28;20131;-76
2023/06/15 09:23:25;;;;;;;0.20;0.20;;;24.00;73.80;;;;;;5087993;28;20445;-77
2023/06/15 09:25:52;;;;;;;0.30;0.30;;;24.10;76.20;;;;;;5087563;28;20051;-77
2023/06/15 09:28:22;;;;;;;0.25;0.25;;;24.20;78.90;;;;;;5087084;28;20119;-76
2023/06/15 09:30:53;;;;;;;0.55;0.20;;;24.30;76.00;;;;;;5087668;28;20040;-77
2023/06/15 09:33:19;;;;;;;0.40;0.40;;;24.40;72.90;;;;;;5087475;28;20370;-76
2023/06/15 09:35:58;;;;;;;0.30;0.30;;;24.30;72.90;;;;;;5070817;28;20489;-76
2023/06/15 09:38:33;;;;;;;0.20;0.20;;;24.50;72.70;;;;;;5070861;28;20050;-77
2023/06/15 09:41:03;;;;;;;0.20;0.20;;;24.60;73.30;;;;;;5090324;28;20044;-76
2023/06/15 09:43:33;;;;;;;0.20;0.20;;;24.80;73.10;;;;;;5091376;28;20496;-76
2023/06/15 09:46:04;;;;;;;0.22;0.22;;;24.90;68.10;;;;;;5074596;28;20055;-74
2023/06/15 09:48:30;;;;;;;0.17;0.17;;;24.90;67.70;;;;;;5074548;28;20446;-75
2023/06/15 09:51:03;;;;;;;0.45;0.45;;;24.90;65.20;;;;;;5074486;28;20036;-75
2023/06/15 09:53:32;;;;;;;0.52;0.28;;;24.80;66.20;;;;;;5060165;28;20040;-75
2023/06/15 09:55:59;;;;;;;0.28;0.28;;;24.70;64.90;;;;;;5091348;28;20050;-76
2023/06/15 09:58:25;;;;;;;0.20;0.20;;;24.60;69.30;;;;;;5074029;28;20476;-76
2023/06/15 10:00:55;;;;;;;0.47;0.47;;;24.70;67.70;;;;;;5090842;28;20047;-75
2023/06/15 10:03:22;;;;;;;0.75;0.75;;;24.90;68.90;;;;;;5090832;28;20040;-76
2023/06/15 10:05:54;;;;;;;0.20;0.20;;;24.90;62.40;;;;;;5091007;28;20047;-76
2023/06/15 10:08:26;;;;;;;0.25;0.25;;;24.90;63.10;;;;;;5090657;28;20123;-77
2023/06/15 10:10:54;;;;;;;0.13;0.13;;;25.00;66.40;;;;;;5074391;28;20036;-77
2023/06/15 10:13:31;;;;;;;0.30;0.30;;;25.20;65.70;;;;;;5090449;28;20048;-76
2023/06/15 10:15:58;;;;;;;0.10;0.10;;;25.40;63.50;;;;;;5054079;28;20051;-77
2023/06/15 10:18:25;;;;;;;0.30;0.30;;;25.50;62.80;;;;;;5070092;28;20144;-76
2023/06/15 10:20:53;;;;;;;0.77;0.30;;;25.50;60.80;;;;;;5070529;28;20041;-75
2023/06/15 10:23:26;;;;;;;0.20;0.20;;;25.50;58.80;;;;;;5070195;28;20044;-76
2023/06/15 10:25:58;;;;;;;0.10;0.10;;;25.70;63.60;;;;;;5053355;28;20045;-76
2023/06/15 10:28:30;;;;;;;0.25;0.25;;;25.80;63.50;;;;;;5086869;28;20048;-77
2023/06/15 10:31:28;;;;;;;0.30;0.30;;;26.00;60.50;;;;;;5053949;28;20495;-75
2023/06/15 10:34:13;;;;;;;0.30;0.30;;;26.10;64.50;;;;;;5075408;28;20123;-76
2023/06/15 10:36:50;;;;;;;0.30;0.30;;;26.00;62.60;;;;;;5090629;28;20047;-76
2023/06/15 10:39:25;;;;;;;0.10;0.10;;;26.00;58.20;;;;;;5090370;28;20052;-76
2023/06/15 10:41:57;;;;;;;0.28;0.28;;;26.00;64.90;;;;;;5090770;28;20492;-77
2023/06/15 10:44:33;;;;;;;0.40;0.40;;;26.00;56.80;;;;;;5075880;28;20032;-76
2023/06/15 10:47:13;;;;;;;0.40;0.40;;;26.00;55.40;;;;;;5073393;28;20127;-76
2023/06/15 10:49:57;;;;;;;0.20;0.20;;;26.00;59.80;;;;;;5089905;28;20032;-76
2023/06/15 10:52:32;;;;;;;0.47;0.35;;;26.20;65.80;;;;;;5101529;28;20044;-76
2023/06/15 10:55:07;;;;;;;0.10;0.10;;;26.40;58.90;;;;;;5075100;28;20051;-76
2023/06/15 10:57:35;;;;;;;0.17;0.17;;;26.50;60.90;;;;;;5072852;28;20059;-76
2023/06/15 11:00:04;;;;;;;0.10;0.10;;;26.70;59.10;;;;;;5073359;28;20043;-77
2023/06/15 11:02:33;;;;;;;0.13;0.13;;;26.70;57.20;;;;;;5090711;28;20146;-76
2023/06/15 11:05:08;;;;;;;0.30;0.30;;;26.70;61.90;;;;;;5090035;28;20055;-77
2023/06/15 11:07:35;;;;;;;0.35;0.30;;;26.60;59.20;;;;;;5090089;28;20040;-76
2023/06/15 11:10:09;;;;;;;0.10;0.10;;;26.50;58.40;;;;;;5089923;28;20044;-75
2023/06/15 11:12:39;;;;;;;0.10;0.10;;;26.40;58.00;;;;;;5089407;28;20153;-76
2023/06/15 11:15:08;;;;;;;0.45;0.45;;;26.30;58.80;;;;;;5073674;28;20452;-77
2023/06/15 11:17:53;;;;;;;0.52;0.40;;;26.30;55.30;;;;;;5072754;28;20040;-77
2023/06/15 11:20:38;;;;;;;0.20;0.20;;;26.40;53.40;;;;;;5072875;28;20389;-77
2023/06/15 11:23:16;;;;;;;0.10;0.10;;;26.30;55.40;;;;;;5090044;28;20556;-76
2023/06/15 11:25:54;;;;;;;0.30;0.30;;;26.50;56.40;;;;;;5090291;28;20075;-75
2023/06/15 11:28:31;;;;;;;0.20;0.20;;;26.80;55.00;;;;;;5106491;28;20489;-76
2023/06/15 11:31:02;;;;;;;0.10;0.10;;;27.00;56.70;;;;;;5089829;28;20083;-77
2023/06/15 11:33:29;;;;;;;0.28;0.28;;;27.10;55.80;;;;;;5088804;28;20043;-77
2023/06/15 11:35:56;;;;;;;0.20;0.20;;;27.30;57.20;;;;;;5089435;28;20131;-76
2023/06/15 11:38:26;;;;;;;0.20;0.20;;;27.30;53.90;;;;;;5055520;28;20047;-76
2023/06/15 11:41:04;;;;;;;0.15;0.15;;;27.20;53.90;;;;;;5090334;28;20474;-75
2023/06/15 11:43:33;;;;;;;0.20;0.20;;;27.30;54.80;;;;;;5072783;28;20052;-76
2023/06/15 11:45:59;;;;;;;2.72;0.50;;;27.50;56.10;;;;;;5088353;28;20044;-76
2023/06/15 11:48:26;;;;;;;0.20;0.20;;;27.70;52.10;;;;;;5071976;28;20043;-75
2023/06/15 11:50:52;;;;;;;0.20;0.20;;;27.60;53.80;;;;;;5072368;28;20051;-76
2023/06/15 11:53:18;;;;;;;0.30;0.30;;;27.60;52.90;;;;;;5072965;28;20039;-75
2023/06/15 11:55:45;;;;;;;0.20;0.20;;;27.70;55.70;;;;;;5088749;28;20554;-75
2023/06/15 11:58:12;;;;;;;0.22;0.22;;;27.70;52.50;;;;;;5089217;28;20082;-75
2023/06/15 12:00:39;;;;;;;0.10;0.10;;;27.50;54.40;;;;;;5088455;28;20397;-76
2023/06/15 12:03:09;;;;;;;0.17;0.17;;;27.50;54.30;;;;;;5088927;28;20489;-76
2023/06/15 12:05:35;;;;;;;0.20;0.20;;;27.80;56.30;;;;;;5071902;28;20123;-77
2023/06/15 12:08:02;;;;;;;0.10;0.10;;;28.20;54.20;;;;;;5089315;28;20135;-77
2023/06/15 12:10:28;;;;;;;0.20;0.20;;;28.30;50.80;;;;;;5122924;27;20392;-77
2023/06/15 12:12:58;;;;;;;0.15;0.15;;;28.30;50.80;;;;;;5071983;28;20119;-77
2023/06/15 12:15:24;;;;;;;0.10;0.10;;;28.40;51.00;;;;;;5122971;27;20393;-76
2023/06/15 12:17:50;;;;;;;0.10;0.10;;;28.60;54.70;;;;;;5055896;28;20040;-77
2023/06/15 12:20:17;;;;;;;0.20;0.20;;;28.80;52.30;;;;;;5088670;28;20511;-77
2023/06/15 12:22:44;;;;;;;0.20;0.20;;;28.60;51.20;;;;;;5088626;28;20409;-77
2023/06/15 12:25:11;;;;;;;0.73;0.45;;;28.60;52.70;;;;;;5088339;28;20051;-76
2023/06/15 12:27:55;;;;;;;0.30;0.30;;;28.90;56.30;;;;;;5071351;28;20139;-78
2023/06/15 12:30:21;;;;;;;0.40;0.40;;;29.30;50.70;;;;;;5088432;28;20070;-76
2023/06/15 12:32:50;;;;;;;0.10;0.10;;;29.50;51.50;;;;;;5071950;28;20032;-76
2023/06/15 12:35:26;;;;;;;0.10;0.10;;;29.70;51.20;;;;;;5088453;28;20076;-76
2023/06/15 12:37:54;;;;;;;0.20;0.20;;;30.00;48.60;;;;;;5088752;28;20041;-76
2023/06/15 12:40:21;;;;;;;0.40;0.40;;;29.90;51.60;;;;;;5071685;28;20044;-76
2023/06/15 12:42:59;;;;;;;0.20;0.20;;;29.90;46.50;;;;;;5088640;28;20044;-75
2023/06/15 12:45:25;;;;;;;0.10;0.10;;;30.10;49.00;;;;;;5088256;28;20040;-77
2023/06/15 12:47:51;;;;;;;0.20;0.20;;;30.30;53.00;;;;;;5071683;28;20150;-78
2023/06/15 12:50:17;;;;;;;0.68;0.40;;;30.30;49.30;;;;;;5088275;28;20036;-76
2023/06/15 12:52:42;;;;;;;0.10;0.10;;;30.10;49.80;;;;;;5071057;28;20539;-76
2023/06/15 12:55:08;;;;;;;0.10;0.10;;;29.90;51.50;;;;;;5088348;28;20051;-76
2023/06/15 12:57:34;;;;;;;0.15;0.15;;;29.90;51.90;;;;;;5087540;28;20048;-76
2023/06/15 12:59:59;;;;;;;0.10;0.10;;;30.10;50.00;;;;;;5087719;28;20097;-77
2023/06/15 13:02:25;;;;;;;0.52;0.52;;;30.10;50.80;;;;;;5087619;28;20059;-78